Time;durP1;ratioP1;P1;durP2;ratioP2;P2;SDS_P1;SDS_P2;PMS_P1;PMS_P2;Temp;Humidity;BMP_temperature;BMP_pressure;BME280_temperature;BME280_humidity;BME280_pressure;Samples;Min_cycle;Max_cycle;Signal;HPM_P1;HPM_P2
2020/12/17 00:00:41;;;;;;;26.53;18.00;;;;;;;4.49;100.00;98451.41;4973363;28;20297;-73
2020/12/17 00:03:07;;;;;;;24.53;17.67;;;;;;;4.49;100.00;98454.03;4975078;28;20330;-73
2020/12/17 00:05:33;;;;;;;25.67;17.43;;;;;;;4.45;100.00;98455.06;4975512;28;20890;-73
2020/12/17 00:08:00;;;;;;;25.27;17.43;;;;;;;4.34;100.00;98461.66;4975050;28;20215;-72
2020/12/17 00:10:26;;;;;;;26.80;18.10;;;;;;;4.31;100.00;98457.38;4975223;28;20213;-72
2020/12/17 00:12:52;;;;;;;25.40;17.10;;;;;;;4.34;100.00;98456.41;4975202;28;20215;-72
2020/12/17 00:15:19;;;;;;;23.43;15.90;;;;;;;4.35;100.00;98453.72;4974782;28;20211;-72
2020/12/17 00:17:47;;;;;;;24.03;16.10;;;;;;;4.38;100.00;98447.50;4974986;28;20211;-72
2020/12/17 00:20:15;;;;;;;21.00;14.87;;;;;;;4.56;100.00;98446.78;4975159;28;20262;-72
2020/12/17 00:22:42;;;;;;;23.57;15.83;;;;;;;4.48;100.00;98447.09;4974941;28;20239;-72
2020/12/17 00:25:10;;;;;;;23.37;16.27;;;;;;;4.45;100.00;98439.34;4974686;28;20212;-72
2020/12/17 00:27:38;;;;;;;21.87;15.10;;;;;;;4.48;100.00;98428.78;4972977;28;20898;-73
2020/12/17 00:30:05;;;;;;;20.77;14.93;;;;;;;4.55;100.00;98435.47;4974763;28;20223;-72
2020/12/17 00:32:31;;;;;;;20.70;14.93;;;;;;;4.47;100.00;98442.75;4974767;28;20246;-73
2020/12/17 00:34:57;;;;;;;21.10;14.13;;;;;;;4.39;100.00;98439.59;4973716;28;20369;-72
2020/12/17 00:37:28;;;;;;;21.53;14.50;;;;;;;4.46;100.00;98427.97;4974748;28;20291;-72
2020/12/17 00:39:54;;;;;;;20.00;14.20;;;;;;;4.39;100.00;98428.31;4974555;28;20220;-72
2020/12/17 00:42:20;;;;;;;20.40;14.13;;;;;;;4.28;100.00;98431.31;4974471;28;20324;-72
2020/12/17 00:44:46;;;;;;;20.17;13.83;;;;;;;4.09;100.00;98432.97;4974840;28;20247;-73
2020/12/17 00:47:12;;;;;;;19.83;13.27;;;;;;;4.05;100.00;98434.00;4974372;28;20297;-72
2020/12/17 00:49:38;;;;;;;18.00;13.20;;;;;;;4.05;100.00;98428.78;4974571;28;20215;-72
2020/12/17 00:52:04;;;;;;;17.87;13.47;;;;;;;4.02;100.00;98434.09;4974601;28;20221;-73
2020/12/17 00:54:30;;;;;;;20.07;13.53;;;;;;;3.98;100.00;98427.28;4972807;28;20282;-72
2020/12/17 00:56:56;;;;;;;19.10;12.97;;;;;;;3.95;100.00;98432.66;4974455;28;20215;-72
2020/12/17 00:59:23;;;;;;;16.33;12.57;;;;;;;3.81;100.00;98434.94;4974088;28;20257;-72
2020/12/17 01:01:49;;;;;;;18.40;13.27;;;;;;;3.77;100.00;98443.78;4974100;28;20215;-73
2020/12/17 01:04:15;;;;;;;17.73;13.20;;;;;;;3.70;100.00;98447.56;4974200;28;20239;-73
2020/12/17 01:06:42;;;;;;;20.00;13.13;;;;;;;3.62;100.00;98441.72;4974119;28;20215;-74
2020/12/17 01:09:09;;;;;;;21.80;14.37;;;;;;;3.55;100.00;98442.88;4974464;28;20684;-72
2020/12/17 01:11:35;;;;;;;20.47;14.33;;;;;;;3.58;100.00;98447.13;4974322;28;20206;-72
2020/12/17 01:14:01;;;;;;;19.43;13.57;;;;;;;3.48;100.00;98451.84;4974304;28;20265;-73
2020/12/17 01:16:28;;;;;;;18.80;13.20;;;;;;;3.40;100.00;98443.44;4973980;28;20699;-73
2020/12/17 01:18:54;;;;;;;20.40;14.47;;;;;;;3.28;100.00;98459.53;4972411;28;20218;-73
2020/12/17 01:21:20;;;;;;;20.30;14.27;;;;;;;3.29;100.00;98450.81;4974028;28;20219;-72
2020/12/17 01:23:47;;;;;;;20.60;14.43;;;;;;;3.32;100.00;98445.47;4974131;28;20310;-73
2020/12/17 01:26:13;;;;;;;22.40;14.53;;;;;;;3.31;100.00;98448.97;4973867;28;20219;-72
2020/12/17 01:28:41;;;;;;;18.43;13.40;;;;;;;3.33;100.00;98446.31;4974130;28;20214;-72
2020/12/17 01:31:08;;;;;;;18.13;13.13;;;;;;;3.26;100.00;98450.94;4974130;28;20210;-72
2020/12/17 01:33:34;;;;;;;17.80;13.63;;;;;;;3.29;100.00;98450.81;4973606;28;20243;-73
2020/12/17 01:36:02;;;;;;;19.37;13.53;;;;;;;3.34;100.00;98448.03;4974052;28;20216;-73
2020/12/17 01:38:28;;;;;;;19.33;13.73;;;;;;;3.29;100.00;98453.41;4974066;28;20292;-72
2020/12/17 01:40:54;;;;;;;20.67;13.90;;;;;;;3.20;100.00;98456.38;4973758;28;20272;-72
2020/12/17 01:43:20;;;;;;;20.90;14.27;;;;;;;3.17;100.00;98456.44;4973971;28;20237;-72
2020/12/17 01:45:46;;;;;;;21.93;15.30;;;;;;;3.07;100.00;98460.28;4972632;28;20567;-72
2020/12/17 01:48:16;;;;;;;20.77;13.60;;;;;;;3.01;100.00;98465.69;4977800;28;20257;-72
2020/12/17 01:50:43;;;;;;;21.63;14.63;;;;;;;3.19;100.00;98465.06;4977771;28;20207;-72
2020/12/17 01:53:09;;;;;;;20.90;13.70;;;;;;;3.15;100.00;98460.03;4977574;28;20577;-73
2020/12/17 01:55:35;;;;;;;21.87;14.17;;;;;;;3.05;100.00;98472.53;4977724;28;20281;-72
2020/12/17 01:58:04;;;;;;;20.13;14.17;;;;;;;3.03;100.00;98466.53;4977315;28;20301;-72
2020/12/17 02:00:34;;;;;;;21.73;14.03;;;;;;;3.02;100.00;98470.06;4977642;28;20218;-72
2020/12/17 02:03:00;;;;;;;22.43;14.50;;;;;;;3.01;100.00;98477.94;4977307;28;20230;-72
2020/12/17 02:05:27;;;;;;;19.27;13.97;;;;;;;3.05;100.00;98476.94;4977492;28;20226;-73
2020/12/17 02:07:54;;;;;;;17.63;12.97;;;;;;;3.00;100.00;98477.06;4977554;28;20214;-73
2020/12/17 02:10:20;;;;;;;17.97;13.00;;;;;;;2.82;100.00;98475.06;4977549;28;20281;-73
2020/12/17 02:12:47;;;;;;;19.50;13.10;;;;;;;2.70;100.00;98470.25;4976043;28;20218;-72
2020/12/17 02:15:14;;;;;;;20.93;13.83;;;;;;;2.61;100.00;98482.75;4977288;28;20210;-73
2020/12/17 02:17:40;;;;;;;16.60;13.20;;;;;;;2.57;100.00;98479.38;4977290;28;20215;-73
2020/12/17 02:20:08;;;;;;;19.90;13.97;;;;;;;2.51;100.00;98479.56;4977379;28;20214;-73
2020/12/17 02:22:35;;;;;;;17.70;13.73;;;;;;;2.60;100.00;98486.25;4977506;28;20285;-73
2020/12/17 02:25:02;;;;;;;20.93;13.77;;;;;;;2.57;100.00;98479.38;4977253;28;20238;-73
2020/12/17 02:27:28;;;;;;;21.67;14.33;;;;;;;2.47;100.00;98488.41;4976987;28;20207;-73
2020/12/17 02:29:54;;;;;;;23.20;14.23;;;;;;;2.34;100.00;98488.84;4976752;28;20738;-73
2020/12/17 02:32:20;;;;;;;20.37;14.37;;;;;;;2.36;100.00;98490.50;4976951;28;20329;-73
2020/12/17 02:34:46;;;;;;;17.60;13.03;;;;;;;2.39;100.00;98492.16;4976447;28;20242;-72
2020/12/17 02:37:12;;;;;;;22.00;14.70;;;;;;;2.34;100.00;98491.44;4976569;28;20210;-72
2020/12/17 02:39:38;;;;;;;23.77;15.63;;;;;;;2.52;100.00;98486.50;4975846;28;20217;-72
2020/12/17 02:42:05;;;;;;;23.37;15.33;;;;;;;2.69;100.00;98486.81;4976858;28;20669;-72
2020/12/17 02:44:31;;;;;;;23.20;15.30;;;;;;;2.74;100.00;98484.03;4976363;28;20234;-72
2020/12/17 02:46:57;;;;;;;24.40;16.03;;;;;;;2.61;100.00;98481.00;4976655;28;20250;-72
2020/12/17 02:49:23;;;;;;;21.93;16.33;;;;;;;2.62;100.00;98482.69;4976676;28;20242;-72
2020/12/17 02:51:49;;;;;;;27.53;16.90;;;;;;;2.59;100.00;98482.81;4976525;28;20222;-72
2020/12/17 02:54:15;;;;;;;26.20;17.80;;;;;;;2.77;100.00;98477.00;4976396;28;20250;-72
2020/12/17 02:56:41;;;;;;;23.67;17.30;;;;;;;2.76;100.00;98475.25;4976518;28;20222;-72
2020/12/17 02:59:07;;;;;;;25.20;17.00;;;;;;;2.78;100.00;98477.84;4975571;28;20615;-73
2020/12/17 03:01:33;;;;;;;24.77;17.10;;;;;;;2.67;100.00;98477.31;4976421;28;20222;-72
2020/12/17 03:03:59;;;;;;;23.83;16.97;;;;;;;2.71;100.00;98482.41;4974343;28;20238;-72
2020/12/17 03:06:25;;;;;;;25.03;17.60;;;;;;;2.68;100.00;98482.50;4976105;28;20219;-71
2020/12/17 03:08:51;;;;;;;22.87;16.40;;;;;;;2.76;100.00;98474.44;4976024;28;20676;-72
2020/12/17 03:11:17;;;;;;;19.77;14.30;;;;;;;2.65;100.00;98480.00;4976307;28;20249;-72
2020/12/17 03:13:43;;;;;;;21.00;15.17;;;;;;;2.57;100.00;98479.38;4976260;28;20628;-72
2020/12/17 03:16:10;;;;;;;18.63;13.63;;;;;;;2.48;100.00;98487.50;4975901;28;20249;-72
2020/12/17 03:18:36;;;;;;;18.60;14.07;;;;;;;2.48;100.00;98484.91;4975876;28;20218;-72
2020/12/17 03:21:02;;;;;;;19.33;14.03;;;;;;;2.40;100.00;98481.66;4975958;28;20251;-72
2020/12/17 03:23:28;;;;;;;20.53;14.67;;;;;;;2.34;100.00;98481.03;4976134;28;20568;-72
2020/12/17 03:25:54;;;;;;;20.53;13.77;;;;;;;2.25;100.00;98482.16;4976086;28;20211;-73
2020/12/17 03:28:20;;;;;;;21.10;14.27;;;;;;;2.03;100.00;98491.50;4976061;28;20661;-71
2020/12/17 03:30:46;;;;;;;20.47;14.60;;;;;;;1.96;100.00;98494.38;4974454;28;20673;-72
2020/12/17 03:33:13;;;;;;;20.80;14.60;;;;;;;1.88;100.00;98485.91;4975967;28;20211;-72
2020/12/17 03:35:39;;;;;;;21.67;14.27;;;;;;;2.00;100.00;98486.41;4976059;28;20214;-72
2020/12/17 03:38:05;;;;;;;21.77;14.20;;;;;;;2.02;100.00;98488.97;4975912;28;20684;-72
2020/12/17 03:40:31;;;;;;;21.37;14.17;;;;;;;2.06;100.00;98495.78;4975668;28;20793;-72
2020/12/17 03:42:57;;;;;;;21.63;15.07;;;;;;;1.94;100.00;98491.81;4975954;28;20219;-72
2020/12/17 03:45:23;;;;;;;21.27;14.47;;;;;;;2.06;100.00;98481.00;4975440;28;20274;-71
2020/12/17 03:47:50;;;;;;;19.03;12.83;;;;;;;2.02;100.00;98491.59;4975481;28;20225;-73
2020/12/17 03:50:17;;;;;;;18.93;13.07;;;;;;;1.88;100.00;98486.78;4975594;28;20217;-72
2020/12/17 03:52:43;;;;;;;20.40;14.23;;;;;;;1.92;100.00;98487.53;4975653;28;20211;-71
2020/12/17 03:55:09;;;;;;;21.47;14.80;;;;;;;1.85;100.00;98476.41;4975535;28;20212;-72
2020/12/17 03:57:35;;;;;;;20.03;13.67;;;;;;;1.74;100.00;98483.72;4973675;28;20791;-72
2020/12/17 04:00:01;;;;;;;21.23;14.70;;;;;;;1.85;100.00;98476.41;4975189;28;20250;-72
2020/12/17 04:02:27;;;;;;;23.50;15.10;;;;;;;1.92;100.00;98488.41;4975408;28;20222;-72
2020/12/17 04:04:53;;;;;;;21.53;13.93;;;;;;;1.97;100.00;98489.09;4975247;28;20455;-72
2020/12/17 04:07:19;;;;;;;20.83;14.17;;;;;;;1.85;100.00;98483.41;4975128;28;20211;-72
2020/12/17 04:09:45;;;;;;;20.03;13.93;;;;;;;1.81;100.00;98487.84;4974257;28;20246;-72
2020/12/17 04:12:11;;;;;;;19.70;13.27;;;;;;;1.66;100.00;98475.25;4975536;28;20302;-72
2020/12/17 04:14:39;;;;;;;21.77;14.77;;;;;;;1.55;100.00;98487.75;4974836;28;20217;-71
2020/12/17 04:17:05;;;;;;;19.00;13.83;;;;;;;1.58;100.00;98495.47;4975041;28;20261;-71
2020/12/17 04:19:31;;;;;;;22.13;14.77;;;;;;;1.70;100.00;98489.91;4975127;28;20293;-71
2020/12/17 04:21:57;;;;;;;22.03;15.33;;;;;;;1.61;100.00;98500.56;4974892;28;20301;-71
2020/12/17 04:24:24;;;;;;;23.30;14.70;;;;;;;1.68;100.00;98486.50;4973195;28;20296;-72
2020/12/17 04:26:50;;;;;;;22.47;14.47;;;;;;;1.68;100.00;98489.09;4974601;28;20211;-71
2020/12/17 04:29:16;;;;;;;19.00;13.23;;;;;;;1.61;100.00;98497.97;4974446;28;20218;-71
2020/12/17 04:31:42;;;;;;;20.27;14.43;;;;;;;1.62;100.00;98494.47;4974740;28;20219;-72
2020/12/17 04:34:08;;;;;;;21.80;13.93;;;;;;;1.68;100.00;98498.66;4974567;28;20239;-71
2020/12/17 04:36:34;;;;;;;24.43;15.10;;;;;;;1.63;100.00;98500.53;4974838;28;20312;-71
2020/12/17 04:39:00;;;;;;;21.67;15.23;;;;;;;1.71;100.00;98503.78;4974956;28;20211;-71
2020/12/17 04:41:27;;;;;;;20.03;14.53;;;;;;;1.72;100.00;98493.31;4975895;28;20298;-70
2020/12/17 04:43:53;;;;;;;20.87;14.43;;;;;;;1.68;100.00;98494.31;4978171;28;20238;-70
2020/12/17 04:46:19;;;;;;;21.07;13.57;;;;;;;1.77;100.00;98499.25;4978184;28;20583;-70
2020/12/17 04:48:47;;;;;;;21.30;13.30;;;;;;;1.74;100.00;98498.47;4976251;28;20222;-72
2020/12/17 04:51:13;;;;;;;21.10;13.87;;;;;;;1.74;100.00;98486.31;4978292;28;20226;-72
2020/12/17 04:53:44;;;;;;;20.10;14.10;;;;;;;1.80;100.00;98488.75;4978255;28;20696;-71
2020/12/17 04:56:11;;;;;;;21.17;14.30;;;;;;;1.85;100.00;98488.63;4978532;28;20215;-72
2020/12/17 04:58:44;;;;;;;21.63;13.87;;;;;;;1.76;100.00;98487.13;4978145;28;20218;-71
2020/12/17 05:01:13;;;;;;;20.43;14.00;;;;;;;1.76;100.00;98479.31;4975741;28;20354;-72
2020/12/17 05:03:40;;;;;;;21.00;15.17;;;;;;;1.78;100.00;98479.28;4974145;28;20242;-72
2020/12/17 05:06:07;;;;;;;21.40;14.47;;;;;;;1.91;100.00;98476.22;4974539;28;20217;-73
2020/12/17 05:08:33;;;;;;;22.90;15.13;;;;;;;1.99;100.00;98484.72;4974289;28;20219;-72
2020/12/17 05:10:59;;;;;;;20.73;14.67;;;;;;;2.01;100.00;98477.69;4974240;28;20221;-72
2020/12/17 05:13:25;;;;;;;22.70;14.77;;;;;;;2.02;100.00;98481.16;4974569;28;20211;-72
2020/12/17 05:15:52;;;;;;;21.10;14.43;;;;;;;2.06;100.00;98488.81;4972674;28;20214;-71
2020/12/17 05:18:18;;;;;;;23.07;16.07;;;;;;;2.02;100.00;98489.81;4974178;28;20219;-71
2020/12/17 05:20:44;;;;;;;22.50;15.03;;;;;;;2.11;100.00;98499.97;4974672;28;20297;-71
2020/12/17 05:23:11;;;;;;;21.87;14.90;;;;;;;2.13;100.00;98502.50;4978070;28;20221;-71
2020/12/17 05:25:38;;;;;;;20.97;14.10;;;;;;;2.21;100.00;98511.81;4977820;28;20215;-71
2020/12/17 05:28:05;;;;;;;21.50;14.67;;;;;;;2.35;100.00;98514.03;4977984;28;20255;-72
2020/12/17 05:30:32;;;;;;;19.13;13.53;;;;;;;2.40;100.00;98522.56;4977830;28;20210;-72
2020/12/17 05:33:00;;;;;;;17.57;13.10;;;;;;;2.42;100.00;98521.63;4978013;28;20222;-71
2020/12/17 05:35:31;;;;;;;18.67;14.17;;;;;;;2.46;100.00;98525.81;4977488;28;20242;-72
2020/12/17 05:38:00;;;;;;;17.77;12.93;;;;;;;2.43;100.00;98531.16;4977759;28;20210;-72
2020/12/17 05:40:26;;;;;;;17.97;11.93;;;;;;;2.44;100.00;98527.63;4977628;28;20678;-72
2020/12/17 05:42:52;;;;;;;18.27;13.23;;;;;;;2.50;100.00;98524.84;4975981;28;20219;-72
2020/12/17 05:45:25;;;;;;;18.80;13.47;;;;;;;2.50;100.00;98524.00;4977563;28;20724;-71
2020/12/17 05:48:17;;;;;;;19.17;13.03;;;;;;;2.56;100.00;98529.84;4977811;28;20221;-72
2020/12/17 05:50:53;;;;;;;20.00;13.00;;;;;;;2.62;100.00;98529.66;4962969;28;20219;-72
2020/12/17 05:53:20;;;;;;;17.33;12.30;;;;;;;2.60;100.00;98530.63;4977467;28;20206;-72
2020/12/17 05:55:48;;;;;;;19.53;12.40;;;;;;;2.64;100.00;98527.84;4977739;28;20215;-72
2020/12/17 05:58:14;;;;;;;17.67;12.43;;;;;;;2.64;100.00;98535.69;4977293;28;20680;-72
2020/12/17 06:00:40;;;;;;;19.27;12.90;;;;;;;2.69;100.00;98536.41;4977624;28;20291;-72
2020/12/17 06:03:10;;;;;;;19.03;13.23;;;;;;;2.73;100.00;98535.41;4977678;28;20319;-72
2020/12/17 06:05:42;;;;;;;21.07;13.33;;;;;;;2.67;100.00;98533.00;4977602;28;20245;-72
2020/12/17 06:08:16;;;;;;;21.37;14.57;;;;;;;2.75;100.00;98541.41;4975880;28;20212;-71
2020/12/17 06:10:47;;;;;;;19.73;13.93;;;;;;;2.77;100.00;98550.06;4977174;28;20211;-72
2020/12/17 06:13:14;;;;;;;20.17;14.30;;;;;;;2.83;100.00;98549.00;4977482;28;20207;-71
2020/12/17 06:15:44;;;;;;;18.97;13.70;;;;;;;2.86;100.00;98560.22;4977141;28;20767;-71
2020/12/17 06:18:11;;;;;;;19.87;13.80;;;;;;;2.92;100.00;98565.22;4977345;28;20219;-72
2020/12/17 06:20:42;;;;;;;21.47;14.53;;;;;;;2.99;100.00;98566.75;4977360;28;20575;-71
2020/12/17 06:23:12;;;;;;;20.70;15.03;;;;;;;3.04;100.00;98570.06;4977234;28;20219;-70
2020/12/17 06:25:38;;;;;;;21.43;15.87;;;;;;;3.16;100.00;98574.88;4977011;28;20297;-72
2020/12/17 06:28:04;;;;;;;19.50;13.90;;;;;;;3.20;100.00;98573.88;4977042;28;20203;-72
2020/12/17 06:30:32;;;;;;;23.53;14.80;;;;;;;3.26;100.00;98578.91;4976874;28;20218;-71
2020/12/17 06:32:59;;;;;;;19.60;14.00;;;;;;;3.35;100.00;98583.81;4975893;28;20215;-70
2020/12/17 06:35:42;;;;;;;19.20;12.17;;;;;;;3.40;100.00;98581.91;4975126;28;20249;-71
2020/12/17 06:38:10;;;;;;;15.30;11.63;;;;;;;3.32;100.00;98581.31;4976919;28;20214;-71
2020/12/17 06:40:36;;;;;;;15.10;12.03;;;;;;;3.24;100.00;98583.31;4976591;28;20211;-71
2020/12/17 06:43:03;;;;;;;17.73;12.80;;;;;;;3.14;100.00;98594.97;4976885;28;20558;-71
2020/12/17 06:45:32;;;;;;;18.63;12.93;;;;;;;3.19;100.00;98589.59;4976756;28;20238;-71
2020/12/17 06:47:59;;;;;;;18.67;13.43;;;;;;;3.18;100.00;98582.69;4976741;28;20281;-71
2020/12/17 06:50:27;;;;;;;16.23;12.37;;;;;;;3.11;100.00;98584.63;4976703;28;20242;-71
2020/12/17 06:53:11;;;;;;;16.83;12.53;;;;;;;3.10;100.00;98595.97;4976819;28;20246;-71
2020/12/17 06:55:42;;;;;;;16.70;12.27;;;;;;;3.12;100.00;98601.16;4976200;28;20220;-71
2020/12/17 06:58:17;;;;;;;18.77;12.67;;;;;;;3.10;100.00;98605.56;4976460;28;20210;-71
2020/12/17 07:00:43;;;;;;;17.57;12.30;;;;;;;3.15;100.00;98601.91;4974725;28;20214;-71
2020/12/17 07:03:09;;;;;;;22.67;14.43;;;;;;;3.26;100.00;98607.63;4976630;28;20552;-71
2020/12/17 07:05:36;;;;;;;20.30;13.70;;;;;;;3.35;100.00;98612.53;4976187;28;20288;-71
2020/12/17 07:08:03;;;;;;;19.80;14.03;;;;;;;3.48;100.00;98616.44;4976576;28;20218;-71
2020/12/17 07:10:31;;;;;;;17.93;13.27;;;;;;;3.57;100.00;98621.38;4976452;28;20206;-71
2020/12/17 07:12:57;;;;;;;20.93;13.20;;;;;;;3.66;100.00;98622.84;4976441;28;20215;-71
2020/12/17 07:15:32;;;;;;;19.33;13.23;;;;;;;3.82;100.00;98631.84;4976391;28;20218;-71
2020/12/17 07:18:21;;;;;;;18.23;13.17;;;;;;;3.90;100.00;98622.84;4975956;28;20293;-71
2020/12/17 07:20:52;;;;;;;18.67;12.97;;;;;;;3.95;100.00;98638.34;4976158;28;20207;-71
2020/12/17 07:23:19;;;;;;;21.23;13.53;;;;;;;3.99;100.00;98638.22;4976118;28;20210;-71
2020/12/17 07:25:49;;;;;;;19.40;13.20;;;;;;;4.06;100.00;98633.59;4975409;28;20293;-71
2020/12/17 07:28:15;;;;;;;17.77;12.90;;;;;;;4.07;100.00;98635.31;4975045;28;20673;-72
2020/12/17 07:30:54;;;;;;;17.60;12.97;;;;;;;4.10;100.00;98638.66;4975769;28;20275;-71
2020/12/17 07:33:43;;;;;;;17.17;12.63;;;;;;;4.14;100.00;98648.13;4975468;28;20704;-73
2020/12/17 07:36:11;;;;;;;17.33;12.37;;;;;;;4.19;100.00;98651.44;4975818;28;20250;-71
2020/12/17 07:38:39;;;;;;;17.20;12.27;;;;;;;4.19;100.00;98656.66;4975442;28;20211;-71
2020/12/17 07:41:06;;;;;;;14.50;10.90;;;;;;;4.20;100.00;98652.28;4975628;28;20303;-71
2020/12/17 07:43:42;;;;;;;16.30;11.97;;;;;;;4.16;100.00;98662.00;4975375;28;20234;-71
2020/12/17 07:46:09;;;;;;;17.23;10.73;;;;;;;4.13;100.00;98656.88;4975485;28;20214;-71
2020/12/17 07:48:38;;;;;;;15.03;11.30;;;;;;;4.13;100.00;98656.88;4975583;28;20218;-71
2020/12/17 07:51:05;;;;;;;14.67;11.30;;;;;;;4.08;100.00;98661.41;4975336;28;20669;-71
2020/12/17 07:53:32;;;;;;;13.60;10.93;;;;;;;4.03;100.00;98671.19;4973661;28;20216;-72
2020/12/17 07:55:58;;;;;;;14.33;10.93;;;;;;;3.91;100.00;98676.84;4975585;28;20215;-72
2020/12/17 07:58:25;;;;;;;13.57;10.57;;;;;;;3.89;100.00;98673.44;4975177;28;20264;-72
2020/12/17 08:00:53;;;;;;;13.63;10.33;;;;;;;3.89;100.00;98678.66;4975127;28;20678;-72
2020/12/17 08:03:19;;;;;;;15.63;10.90;;;;;;;3.87;100.00;98683.09;4975358;28;20731;-72
2020/12/17 08:05:46;;;;;;;15.23;11.03;;;;;;;3.95;100.00;98685.41;4975522;28;20239;-72
2020/12/17 08:08:15;;;;;;;13.93;10.70;;;;;;;4.05;100.00;98684.22;4975383;28;20215;-71
2020/12/17 08:10:41;;;;;;;16.10;10.97;;;;;;;4.22;100.00;98694.94;4975233;28;20225;-71
2020/12/17 08:13:07;;;;;;;16.87;11.47;;;;;;;4.29;100.00;98689.41;4975115;28;20220;-71
2020/12/17 08:15:34;;;;;;;18.90;11.40;;;;;;;4.42;100.00;98689.84;4975472;28;20215;-71
2020/12/17 08:18:02;;;;;;;12.80;10.10;;;;;;;4.49;100.00;98688.72;4975019;28;20264;-72
2020/12/17 08:20:28;;;;;;;13.10;10.07;;;;;;;4.48;100.00;98690.50;4973150;28;20676;-72
2020/12/17 08:22:54;;;;;;;12.33;9.47;;;;;;;4.36;100.00;98677.84;4975259;28;20217;-72
2020/12/17 08:25:21;;;;;;;13.93;9.93;;;;;;;4.28;100.00;98692.13;4975005;28;20241;-72
2020/12/17 08:27:48;;;;;;;12.80;9.20;;;;;;;4.22;100.00;98687.09;4974834;28;20627;-72
2020/12/17 08:30:14;;;;;;;12.73;9.10;;;;;;;4.14;100.00;98689.97;4974638;28;20685;-72
2020/12/17 08:32:50;;;;;;;14.73;10.03;;;;;;;4.08;100.00;98692.81;4974746;28;20664;-72
2020/12/17 08:35:23;;;;;;;11.33;9.17;;;;;;;4.04;100.00;98687.75;4975099;28;20250;-73
2020/12/17 08:37:50;;;;;;;13.10;9.30;;;;;;;4.04;100.00;98687.75;4974793;28;20215;-71
2020/12/17 08:40:22;;;;;;;10.87;9.20;;;;;;;4.00;100.00;98691.34;4974833;28;20214;-71
2020/12/17 08:42:51;;;;;;;12.87;9.27;;;;;;;4.08;100.00;98699.78;4974594;28;20218;-71
2020/12/17 08:45:19;;;;;;;11.53;9.03;;;;;;;4.20;100.00;98692.38;4972893;28;20231;-71
2020/12/17 08:47:50;;;;;;;11.37;8.90;;;;;;;4.27;100.00;98691.25;4974684;28;20305;-72
2020/12/17 08:50:17;;;;;;;13.77;9.70;;;;;;;4.47;100.00;98694.00;4974766;28;20227;-72
2020/12/17 08:52:44;;;;;;;12.83;9.27;;;;;;;4.64;100.00;98694.25;4974800;28;20218;-72
2020/12/17 08:55:11;;;;;;;11.50;8.77;;;;;;;4.82;100.00;98690.94;4974392;28;20208;-72
2020/12/17 08:57:37;;;;;;;11.90;9.63;;;;;;;5.01;100.00;98691.13;4974219;28;20221;-71
2020/12/17 09:00:04;;;;;;;11.17;8.87;;;;;;;5.18;100.00;98688.69;4974269;28;20217;-72
2020/12/17 09:02:30;;;;;;;10.97;8.43;;;;;;;5.30;100.00;98709.16;4974780;28;20210;-72
2020/12/17 09:04:58;;;;;;;10.70;8.47;;;;;;;5.41;100.00;98707.84;4970941;28;20242;-72
2020/12/17 09:07:25;;;;;;;11.07;7.83;;;;;;;5.45;100.00;98708.56;4972810;28;20217;-71
2020/12/17 09:09:51;;;;;;;10.87;7.90;;;;;;;5.39;100.00;98708.81;4974166;28;20590;-70
2020/12/17 09:12:27;;;;;;;8.80;7.37;;;;;;;5.27;100.00;98715.41;4972453;28;20214;-71
2020/12/17 09:14:53;;;;;;;10.10;7.93;;;;;;;5.16;100.00;98717.59;4974365;28;20219;-71
2020/12/17 09:17:19;;;;;;;8.77;7.23;;;;;;;5.07;100.00;98733.63;4974247;28;20207;-70
2020/12/17 09:19:46;;;;;;;10.13;8.00;;;;;;;5.00;100.00;98737.41;4974489;28;20216;-71
2020/12/17 09:22:14;;;;;;;10.17;7.73;;;;;;;4.93;100.00;98730.69;4974240;28;20208;-71
2020/12/17 09:24:45;;;;;;;11.23;7.10;;;;;;;4.93;100.00;98735.94;4973954;28;20713;-71
2020/12/17 09:27:20;;;;;;;13.43;7.70;;;;;;;4.97;100.00;98734.03;4974349;28;20245;-71
2020/12/17 09:30:00;;;;;;;10.20;8.17;;;;;;;5.03;100.00;98737.31;4954918;28;20302;-70
2020/12/17 09:32:26;;;;;;;10.80;7.97;;;;;;;5.04;100.00;98730.28;4954810;29;20229;-69
2020/12/17 09:35:00;;;;;;;10.40;7.60;;;;;;;5.12;100.00;98731.69;4954949;29;20248;-70
2020/12/17 09:37:27;;;;;;;9.73;7.77;;;;;;;5.18;100.00;98736.72;4953138;29;20219;-72
2020/12/17 09:39:53;;;;;;;9.67;7.57;;;;;;;5.22;100.00;98740.94;4954559;29;20220;-70
2020/12/17 09:42:19;;;;;;;8.97;7.07;;;;;;;5.27;100.00;98741.63;4953823;29;20217;-72
2020/12/17 09:44:45;;;;;;;9.50;6.93;;;;;;;5.33;100.00;98744.00;4954751;29;20329;-72
2020/12/17 09:47:11;;;;;;;9.83;7.00;;;;;;;5.37;100.00;98745.56;4955094;29;20729;-71
2020/12/17 09:49:39;;;;;;;11.17;7.43;;;;;;;5.40;100.00;98755.94;4952735;29;20216;-73
2020/12/17 09:52:08;;;;;;;11.00;7.40;;;;;;;5.41;100.00;98748.91;4951843;29;20685;-73
2020/12/17 09:54:40;;;;;;;8.17;6.80;;;;;;;5.49;100.00;98766.06;4953136;29;20214;-72
2020/12/17 09:57:10;;;;;;;8.60;6.50;;;;;;;5.52;100.00;98755.47;4953011;29;20217;-73
2020/12/17 09:59:36;;;;;;;8.70;6.90;;;;;;;5.59;100.00;98753.44;4962484;28;20300;-73
2020/12/17 10:02:03;;;;;;;8.20;6.73;;;;;;;5.63;100.00;98750.63;4971549;28;20279;-72
2020/12/17 10:04:30;;;;;;;8.57;6.87;;;;;;;5.63;100.00;98761.13;4970683;28;20287;-73
2020/12/17 10:06:56;;;;;;;9.17;7.13;;;;;;;5.70;100.00;98767.00;4970890;28;20220;-72
2020/12/17 10:09:22;;;;;;;8.47;6.70;;;;;;;5.74;100.00;98768.59;4972963;28;20251;-71
2020/12/17 10:11:50;;;;;;;9.27;6.73;;;;;;;5.81;100.00;98760.41;4968346;28;20208;-71
2020/12/17 10:14:16;;;;;;;9.40;7.37;;;;;;;5.84;100.00;98768.19;4972791;28;20686;-70
2020/12/17 10:16:43;;;;;;;9.80;7.50;;;;;;;5.97;100.00;98772.00;4973620;28;20219;-70
2020/12/17 10:19:10;;;;;;;10.60;7.50;;;;;;;6.20;100.00;98764.03;4971755;28;20573;-71
2020/12/17 10:21:36;;;;;;;9.03;6.77;;;;;;;6.30;100.00;98760.09;4974692;28;20213;-70
2020/12/17 10:24:02;;;;;;;8.17;6.43;;;;;;;6.24;100.00;98760.34;4971743;28;20233;-71
2020/12/17 10:26:28;;;;;;;10.10;7.17;;;;;;;6.33;100.00;98749.50;4975273;28;20890;-72
2020/12/17 10:28:55;;;;;;;7.23;6.47;;;;;;;6.53;100.00;98754.72;4961278;28;20211;-70
2020/12/17 10:31:21;;;;;;;8.63;7.03;;;;;;;6.56;100.00;98757.22;4954152;28;20213;-72
2020/12/17 10:33:47;;;;;;;8.93;6.53;;;;;;;6.58;100.00;98758.00;4955841;28;20233;-71
2020/12/17 10:36:13;;;;;;;8.30;6.23;;;;;;;6.54;100.00;98761.69;4955341;28;20308;-71
2020/12/17 10:38:39;;;;;;;8.70;6.53;;;;;;;6.53;100.00;98762.59;4956054;28;20212;-72
2020/12/17 10:41:06;;;;;;;8.50;6.17;;;;;;;6.48;100.00;98759.31;4956317;28;20703;-69
2020/12/17 10:43:32;;;;;;;9.30;6.70;;;;;;;6.48;100.00;98754.06;4966051;28;20218;-68
2020/12/17 10:45:58;;;;;;;8.53;6.40;;;;;;;6.46;100.00;98761.16;4976581;28;20241;-68
2020/12/17 10:48:24;;;;;;;10.03;6.63;;;;;;;6.53;100.00;98752.09;4976802;28;20217;-68
2020/12/17 10:50:50;;;;;;;7.90;5.73;;;;;;;6.57;100.00;98764.19;4976525;28;20257;-68
2020/12/17 10:53:17;;;;;;;9.07;6.70;;;;;;;6.64;100.00;98765.63;4976697;28;20209;-68
2020/12/17 10:55:42;;;;;;;9.10;6.60;;;;;;;6.74;100.00;98761.69;4976609;28;20618;-68
2020/12/17 10:58:08;;;;;;;8.27;6.67;;;;;;;6.81;100.00;98757.88;4974875;28;20217;-68
2020/12/17 11:00:35;;;;;;;7.53;6.00;;;;;;;6.92;100.00;98766.13;4976420;28;20722;-69
2020/12/17 11:03:02;;;;;;;8.20;6.23;;;;;;;6.98;100.00;98760.59;4976711;28;20214;-69
2020/12/17 11:05:28;;;;;;;7.30;5.67;;;;;;;7.07;100.00;98770.69;4976478;28;20242;-69
2020/12/17 11:07:54;;;;;;;8.30;6.20;;;;;;;7.20;100.00;98761.31;4976732;28;20260;-67
2020/12/17 11:10:20;;;;;;;7.77;6.00;;;;;;;7.34;100.00;98774.69;4976589;28;20578;-67
2020/12/17 11:12:46;;;;;;;7.37;6.13;;;;;;;7.28;100.00;98790.75;4976516;28;20218;-67
2020/12/17 11:15:12;;;;;;;9.07;5.63;;;;;;;7.39;100.00;98809.50;4976343;28;20210;-68
2020/12/17 11:17:38;;;;;;;9.40;7.07;;;;;;;7.25;100.00;98804.03;4976264;28;20218;-67
2020/12/17 11:20:05;;;;;;;7.77;6.40;;;;;;;7.43;100.00;98808.44;4975927;28;20268;-68